createdAt,value
2018-08-16T00:00:17.909Z,18.40
2018-08-16T00:02:47.443Z,18.40
2018-08-16T00:05:16.846Z,18.40
2018-08-16T00:07:46.165Z,18.40
2018-08-16T00:10:17.252Z,18.40
2018-08-16T00:12:47.163Z,18.30
2018-08-16T00:15:16.927Z,18.30
2018-08-16T00:17:45.926Z,18.30
2018-08-16T00:20:15.203Z,18.30
2018-08-16T00:22:44.410Z,18.20
2018-08-16T00:25:14.078Z,18.10
2018-08-16T00:27:43.158Z,18.10
2018-08-16T00:30:13.642Z,18.00
2018-08-16T00:32:43.262Z,18.00
2018-08-16T00:35:12.314Z,17.90
2018-08-16T00:37:41.408Z,17.90
2018-08-16T00:40:12.404Z,17.90
2018-08-16T00:42:41.451Z,17.90
2018-08-16T00:45:11.299Z,17.90
2018-08-16T00:47:40.279Z,17.90
2018-08-16T00:50:11.581Z,17.90
2018-08-16T00:52:40.958Z,17.80
2018-08-16T00:55:11.100Z,17.80
2018-08-16T00:57:40.116Z,17.90
2018-08-16T01:00:11.950Z,17.80
2018-08-16T01:02:40.927Z,17.80
2018-08-16T01:05:10.107Z,17.70
2018-08-16T01:07:39.226Z,17.70
2018-08-16T01:10:10.112Z,17.70
2018-08-16T01:12:39.209Z,17.60
2018-08-16T01:15:10.069Z,17.70
2018-08-16T01:17:39.290Z,17.60
2018-08-16T01:20:08.804Z,17.70
2018-08-16T01:22:38.074Z,17.60
2018-08-16T01:25:08.169Z,17.60
2018-08-16T01:27:37.188Z,17.50
2018-08-16T01:30:07.437Z,17.50
2018-08-16T01:32:36.598Z,17.40
2018-08-16T01:35:06.687Z,17.40
2018-08-16T01:37:35.671Z,17.50
2018-08-16T01:40:05.794Z,17.50
2018-08-16T01:42:34.966Z,17.50
2018-08-16T01:45:03.961Z,17.50
2018-08-16T01:47:33.066Z,17.50
2018-08-16T01:50:02.093Z,17.50
2018-08-16T01:52:31.276Z,17.60
2018-08-16T01:55:00.447Z,17.60
2018-08-16T01:57:29.539Z,17.60
2018-08-16T01:59:58.478Z,17.50
2018-08-16T02:02:27.559Z,17.50
2018-08-16T02:04:58.486Z,17.50
2018-08-16T02:07:27.593Z,17.40
2018-08-16T02:09:56.778Z,17.40
2018-08-16T02:12:25.826Z,17.40
2018-08-16T02:14:54.814Z,17.40
2018-08-16T02:17:24.044Z,17.40
2018-08-16T02:19:53.103Z,17.40
2018-08-16T02:22:22.239Z,17.40
2018-08-16T02:24:51.292Z,17.50
2018-08-16T02:27:20.215Z,17.50
2018-08-16T02:29:49.382Z,17.50
2018-08-16T02:32:18.514Z,17.40
2018-08-16T02:34:47.471Z,17.50
2018-08-16T02:37:16.616Z,17.40
2018-08-16T02:39:45.873Z,17.40
2018-08-16T02:42:14.993Z,17.40
2018-08-16T02:44:44.041Z,17.40
2018-08-16T02:47:13.161Z,17.50
2018-08-16T02:49:42.142Z,17.50
2018-08-16T02:52:11.186Z,17.50
2018-08-16T02:54:40.144Z,17.50
2018-08-16T02:57:09.288Z,17.50
2018-08-16T02:59:38.410Z,17.50
2018-08-16T03:02:07.538Z,17.50
2018-08-16T03:04:36.527Z,17.50
2018-08-16T03:07:05.686Z,17.50
2018-08-16T03:09:34.716Z,17.50
2018-08-16T03:12:03.830Z,17.50
2018-08-16T03:14:32.828Z,17.40
2018-08-16T03:17:01.931Z,17.50
2018-08-16T03:19:31.022Z,17.40
2018-08-16T03:21:59.944Z,17.40
2018-08-16T03:24:28.899Z,17.40
2018-08-16T03:26:58.016Z,17.40
2018-08-16T03:29:27.050Z,17.30
2018-08-16T03:31:56.331Z,17.40
2018-08-16T03:34:25.291Z,17.40
2018-08-16T03:36:54.264Z,17.30
2018-08-16T03:39:23.259Z,17.30
2018-08-16T03:41:52.272Z,17.30
2018-08-16T03:44:21.150Z,17.30
2018-08-16T03:46:50.189Z,17.20
2018-08-16T03:49:19.415Z,17.20
2018-08-16T03:51:48.475Z,17.20
2018-08-16T03:54:17.423Z,17.20
2018-08-16T03:56:46.430Z,17.20
2018-08-16T03:59:15.460Z,17.20
2018-08-16T04:01:44.478Z,17.20
2018-08-16T04:04:13.487Z,17.20
2018-08-16T04:06:42.719Z,17.10
2018-08-16T04:09:11.940Z,17.10
2018-08-16T04:11:41.019Z,17.10
2018-08-16T04:14:10.024Z,17.00
2018-08-16T04:16:39.078Z,17.10
2018-08-16T04:19:08.331Z,17.00
2018-08-16T04:21:37.488Z,17.00
2018-08-16T04:24:06.607Z,17.00
2018-08-16T04:26:35.606Z,17.00
2018-08-16T04:29:04.722Z,17.00
2018-08-16T04:31:33.786Z,17.00
2018-08-16T04:34:02.843Z,17.00
2018-08-16T04:36:31.977Z,17.00
2018-08-16T04:39:00.983Z,17.00
2018-08-16T04:41:30.168Z,17.00
2018-08-16T04:43:59.097Z,17.00
2018-08-16T04:46:28.038Z,17.00
2018-08-16T04:48:57.098Z,17.00
2018-08-16T04:51:26.247Z,17.00
2018-08-16T04:53:55.262Z,17.00
2018-08-16T04:56:24.335Z,17.00
2018-08-16T04:58:53.370Z,16.90
2018-08-16T05:01:22.394Z,16.90
2018-08-16T05:03:51.678Z,16.80
2018-08-16T05:06:20.733Z,16.70
2018-08-16T05:08:49.723Z,16.70
2018-08-16T05:11:18.736Z,16.70
2018-08-16T05:13:47.686Z,16.80
2018-08-16T05:16:17.162Z,16.80
2018-08-16T05:18:46.079Z,16.80
2018-08-16T05:21:14.979Z,16.90
2018-08-16T05:23:44.016Z,16.90
2018-08-16T05:26:13.203Z,17.00
2018-08-16T05:28:42.306Z,17.00
2018-08-16T05:31:11.506Z,17.10
2018-08-16T05:33:40.486Z,17.10
2018-08-16T05:36:09.440Z,17.10
2018-08-16T05:38:38.522Z,17.20
2018-08-16T05:41:07.594Z,17.20
2018-08-16T05:43:36.581Z,17.30
2018-08-16T05:46:05.781Z,17.30
2018-08-16T05:48:34.866Z,17.40
2018-08-16T05:51:03.795Z,17.50
2018-08-16T05:53:32.735Z,17.50
2018-08-16T05:56:01.447Z,17.50
2018-08-16T05:58:30.258Z,17.50
2018-08-16T06:00:59.020Z,17.50
2018-08-16T06:03:27.833Z,17.60
2018-08-16T06:05:57.004Z,17.60
2018-08-16T06:08:25.956Z,17.60
2018-08-16T06:10:55.312Z,17.60
2018-08-16T06:13:24.370Z,17.60
2018-08-16T06:15:53.374Z,17.60
2018-08-16T06:18:22.539Z,17.60
2018-08-16T06:20:51.551Z,17.70
2018-08-16T06:23:20.532Z,17.70
2018-08-16T06:25:49.595Z,17.70
2018-08-16T06:28:18.739Z,17.80
2018-08-16T06:30:47.835Z,17.80
2018-08-16T06:33:17.090Z,17.80
2018-08-16T06:35:46.078Z,17.90
2018-08-16T06:38:15.057Z,17.90
2018-08-16T06:40:44.043Z,18.00
2018-08-16T06:43:13.116Z,18.00
2018-08-16T06:45:42.166Z,18.00
2018-08-16T06:48:11.295Z,18.00
2018-08-16T06:50:40.327Z,18.10
2018-08-16T06:53:09.527Z,18.10
2018-08-16T06:55:38.668Z,18.10
2018-08-16T06:58:07.953Z,18.10
2018-08-16T07:00:37.095Z,18.10
2018-08-16T07:03:06.319Z,18.20
2018-08-16T07:05:35.264Z,18.20
2018-08-16T07:08:04.378Z,18.30
2018-08-16T07:10:33.418Z,18.30
2018-08-16T07:13:02.510Z,18.30
2018-08-16T07:15:31.578Z,18.40
2018-08-16T07:18:00.610Z,18.40
2018-08-16T07:20:29.772Z,18.40
2018-08-16T07:22:58.764Z,18.50
2018-08-16T07:25:27.914Z,18.50
2018-08-16T07:27:56.899Z,18.50
2018-08-16T07:30:26.163Z,18.50
2018-08-16T07:32:55.307Z,18.60
2018-08-16T07:35:25.032Z,18.60
2018-08-16T07:37:54.072Z,18.60
2018-08-16T07:40:23.190Z,18.60
2018-08-16T07:42:52.189Z,18.70
2018-08-16T07:45:21.299Z,18.70
2018-08-16T07:47:50.358Z,18.70
2018-08-16T07:50:19.379Z,18.70
2018-08-16T07:52:48.570Z,18.70
2018-08-16T07:55:17.725Z,18.80
2018-08-16T07:57:46.733Z,18.80
2018-08-16T08:00:18.643Z,18.80
2018-08-16T08:02:47.873Z,18.90
2018-08-16T08:05:16.878Z,18.90
2018-08-16T08:07:46.026Z,18.90
2018-08-16T08:10:15.277Z,19.00
2018-08-16T08:12:44.386Z,19.00
2018-08-16T08:15:14.592Z,19.00
2018-08-16T08:17:43.705Z,19.00
2018-08-16T08:20:14.875Z,19.00
2018-08-16T08:22:44.176Z,19.00
2018-08-16T08:25:14.220Z,19.10
2018-08-16T08:27:43.444Z,19.10
2018-08-16T08:30:16.370Z,19.10
2018-08-16T08:32:45.572Z,19.10
2018-08-16T08:35:14.740Z,19.20
2018-08-16T08:37:54.514Z,19.20
2018-08-16T08:40:23.466Z,19.20
2018-08-16T08:42:52.588Z,19.20
2018-08-16T08:45:21.676Z,19.20
2018-08-16T08:47:57.850Z,19.20
2018-08-16T08:50:27.564Z,19.20
2018-08-16T08:54:06.594Z,19.30
2018-08-16T08:56:46.649Z,19.20
2018-08-16T08:59:15.866Z,19.30
2018-08-16T09:01:45.156Z,19.20
2018-08-16T09:04:14.122Z,19.30
2018-08-16T09:06:43.300Z,19.30
2018-08-16T09:09:12.445Z,19.30
2018-08-16T09:11:52.411Z,19.30
2018-08-16T09:15:30.081Z,19.30
2018-08-16T09:17:59.126Z,19.30
2018-08-16T09:20:28.170Z,19.30
2018-08-16T09:22:57.303Z,19.30
2018-08-16T09:25:26.232Z,19.30
2018-08-16T09:27:55.369Z,19.30
2018-08-16T09:30:40.596Z,19.30
2018-08-16T09:33:20.734Z,19.30
2018-08-16T09:35:49.892Z,19.40
2018-08-16T09:38:19.154Z,19.40
2018-08-16T09:40:48.307Z,19.40
2018-08-16T09:43:17.290Z,19.40
2018-08-16T09:47:11.451Z,19.50
2018-08-16T09:49:45.608Z,19.50
2018-08-16T09:52:15.358Z,19.50
2018-08-16T09:54:44.523Z,19.60
2018-08-16T09:57:14.462Z,19.60
2018-08-16T09:59:43.739Z,19.50
2018-08-16T10:02:15.262Z,19.50
2018-08-16T10:04:44.249Z,19.50
2018-08-16T10:07:13.273Z,19.50
2018-08-16T10:09:42.287Z,19.50
2018-08-16T10:12:11.712Z,19.60
2018-08-16T10:14:40.780Z,19.60
2018-08-16T10:17:09.765Z,19.60
2018-08-16T10:19:38.770Z,19.60
2018-08-16T10:22:07.702Z,19.60
2018-08-16T10:24:36.651Z,19.60
2018-08-16T10:27:05.764Z,19.60
2018-08-16T10:29:34.723Z,19.60
2018-08-16T10:32:04.009Z,19.60
2018-08-16T10:34:33.012Z,19.60
2018-08-16T10:37:02.070Z,19.60
2018-08-16T10:39:31.118Z,19.60
2018-08-16T10:42:00.199Z,19.60
2018-08-16T10:44:29.322Z,19.70
2018-08-16T10:46:58.391Z,19.70
2018-08-16T10:49:27.407Z,19.70
2018-08-16T10:51:56.474Z,19.70
2018-08-16T10:54:25.676Z,19.70
2018-08-16T10:56:54.760Z,19.70
2018-08-16T10:59:23.828Z,19.70
2018-08-16T11:01:52.756Z,19.70
2018-08-16T11:04:21.832Z,19.80
2018-08-16T11:06:50.935Z,19.80
2018-08-16T11:09:19.960Z,19.80
2018-08-16T11:11:49.014Z,19.80
2018-08-16T11:14:18.174Z,19.80
2018-08-16T11:16:47.759Z,19.80
2018-08-16T11:19:16.751Z,19.80
2018-08-16T11:21:45.974Z,19.80
2018-08-16T11:24:15.020Z,19.80
2018-08-16T11:26:43.937Z,19.80
2018-08-16T11:29:12.947Z,19.80
2018-08-16T11:31:41.973Z,19.80
2018-08-16T11:34:11.001Z,19.80
2018-08-16T11:36:40.147Z,19.80
2018-08-16T11:39:09.240Z,19.80
2018-08-16T11:41:38.351Z,19.90
2018-08-16T11:44:07.586Z,19.90
2018-08-16T11:46:36.558Z,19.80
2018-08-16T11:49:05.602Z,19.90
2018-08-16T11:51:34.626Z,19.90
2018-08-16T11:54:03.450Z,19.90
2018-08-16T11:56:32.480Z,19.90
2018-08-16T11:59:01.483Z,19.90
2018-08-16T12:01:30.463Z,19.90
2018-08-16T12:03:59.559Z,19.90
2018-08-16T12:06:28.552Z,19.90
2018-08-16T12:08:57.622Z,20.00
2018-08-16T12:11:26.623Z,19.90
2018-08-16T12:13:55.736Z,20.00
2018-08-16T12:16:24.786Z,20.00
2018-08-16T12:18:53.962Z,20.00
2018-08-16T12:21:23.038Z,20.00
2018-08-16T12:23:52.054Z,20.00
2018-08-16T12:26:21.039Z,20.00
2018-08-16T12:28:50.277Z,20.00
2018-08-16T12:31:19.513Z,20.00
2018-08-16T12:33:48.544Z,19.90
2018-08-16T12:36:17.495Z,20.00
2018-08-16T12:38:46.501Z,20.00
2018-08-16T12:41:16.852Z,20.00
2018-08-16T12:43:46.566Z,20.00
2018-08-16T12:46:15.629Z,20.00
2018-08-16T12:48:44.610Z,20.00
2018-08-16T12:51:13.754Z,20.00
2018-08-16T12:53:42.837Z,20.00
2018-08-16T12:56:11.854Z,20.00
2018-08-16T12:58:40.806Z,20.00
2018-08-16T13:01:09.833Z,20.10
2018-08-16T13:03:38.895Z,20.10
2018-08-16T13:06:07.953Z,20.10
2018-08-16T13:08:37.156Z,20.10
2018-08-16T13:11:06.695Z,20.10
2018-08-16T13:13:35.766Z,20.10
2018-08-16T13:16:05.351Z,20.10
2018-08-16T13:18:34.407Z,20.10
2018-08-16T13:21:03.539Z,20.10
2018-08-16T13:23:32.775Z,20.10
2018-08-16T13:26:01.969Z,20.10
2018-08-16T13:28:31.119Z,20.10
2018-08-16T13:31:00.182Z,20.10
2018-08-16T13:33:29.130Z,20.10
2018-08-16T13:35:58.286Z,20.10
2018-08-16T13:38:27.414Z,20.10
2018-08-16T13:40:56.192Z,20.10
2018-08-16T13:43:25.244Z,20.10
2018-08-16T13:45:54.016Z,20.10
2018-08-16T13:48:22.862Z,20.20
2018-08-16T13:50:51.975Z,20.20
2018-08-16T13:53:20.882Z,20.20
2018-08-16T13:55:50.051Z,20.20
2018-08-16T13:58:19.034Z,20.20
2018-08-16T14:00:48.278Z,20.20
2018-08-16T14:03:17.430Z,20.20
2018-08-16T14:05:46.302Z,20.20
2018-08-16T14:08:15.311Z,20.20
2018-08-16T14:10:46.567Z,20.20
2018-08-16T14:13:15.555Z,20.20
2018-08-16T14:15:44.656Z,20.20
2018-08-16T14:18:13.926Z,20.20
2018-08-16T14:20:43.086Z,20.20
2018-08-16T14:23:12.023Z,20.20
2018-08-16T14:25:41.055Z,20.20
2018-08-16T14:28:10.146Z,20.20
2018-08-16T14:30:39.200Z,20.20
2018-08-16T14:33:08.359Z,20.20
2018-08-16T14:35:37.311Z,20.20
2018-08-16T14:38:06.442Z,20.20
2018-08-16T14:40:35.449Z,20.20
2018-08-16T14:43:04.565Z,20.20
2018-08-16T14:45:33.666Z,20.20
2018-08-16T14:48:07.898Z,20.20
2018-08-16T14:50:37.250Z,20.20
2018-08-16T14:53:06.778Z,20.20
2018-08-16T14:55:35.790Z,20.20
2018-08-16T14:58:05.300Z,20.20
2018-08-16T15:00:34.480Z,20.20
2018-08-16T15:03:03.609Z,20.20
2018-08-16T15:05:32.681Z,20.20
2018-08-16T15:08:01.874Z,20.20
2018-08-16T15:10:31.014Z,20.20
2018-08-16T15:13:00.321Z,20.20
2018-08-16T15:15:29.096Z,20.20
2018-08-16T15:17:57.844Z,20.20
2018-08-16T15:20:26.834Z,20.20
2018-08-16T15:22:56.117Z,20.20
2018-08-16T15:25:24.910Z,20.20
2018-08-16T15:27:53.941Z,20.20
2018-08-16T15:30:23.090Z,20.20
2018-08-16T15:32:52.046Z,20.20
2018-08-16T15:35:21.156Z,20.30
2018-08-16T15:37:50.242Z,20.20
2018-08-16T15:40:19.394Z,20.20
2018-08-16T15:42:48.677Z,20.20
2018-08-16T15:45:17.640Z,20.20
2018-08-16T15:47:46.661Z,20.20
2018-08-16T15:50:15.783Z,20.20
2018-08-16T15:52:44.988Z,20.20
2018-08-16T15:55:14.013Z,20.20
2018-08-16T15:57:43.105Z,20.20
2018-08-16T16:00:12.514Z,20.30
2018-08-16T16:02:43.076Z,20.20
2018-08-16T16:05:12.443Z,20.30
2018-08-16T16:07:41.647Z,20.30
2018-08-16T16:10:10.926Z,20.30
2018-08-16T16:12:40.041Z,20.20
2018-08-16T16:15:10.143Z,20.30
2018-08-16T16:17:39.310Z,20.20
2018-08-16T16:20:08.323Z,20.20
2018-08-16T16:22:37.639Z,20.30
2018-08-16T16:25:07.630Z,20.30
2018-08-16T16:27:36.725Z,20.20
2018-08-16T16:30:06.919Z,20.30
2018-08-16T16:32:35.689Z,20.20
2018-08-16T16:35:04.583Z,20.20
2018-08-16T16:37:33.363Z,20.30
2018-08-16T16:40:02.487Z,20.30
2018-08-16T16:42:31.466Z,20.30
2018-08-16T16:45:00.582Z,20.30
2018-08-16T16:47:29.778Z,20.30
2018-08-16T16:49:58.884Z,20.30
2018-08-16T16:52:28.095Z,20.30
2018-08-16T16:54:57.207Z,20.30
2018-08-16T16:57:26.687Z,20.30
2018-08-16T16:59:55.652Z,20.30
2018-08-16T17:02:24.763Z,20.30
2018-08-16T17:04:54.002Z,20.30
2018-08-16T17:07:23.153Z,20.30
2018-08-16T17:09:52.164Z,20.30
2018-08-16T17:12:21.126Z,20.30
2018-08-16T17:14:50.163Z,20.30
2018-08-16T17:17:19.546Z,20.30
2018-08-16T17:19:48.722Z,20.30
2018-08-16T17:22:17.711Z,20.20
2018-08-16T17:24:46.630Z,20.30
2018-08-16T17:27:15.652Z,20.30
2018-08-16T17:29:44.627Z,20.30
2018-08-16T17:32:13.544Z,20.30
2018-08-16T17:34:42.338Z,20.30
2018-08-16T17:37:11.513Z,20.20
2018-08-16T17:39:40.490Z,20.20
2018-08-16T17:42:09.726Z,20.20
2018-08-16T17:44:39.470Z,20.20
2018-08-16T17:47:08.912Z,20.20
2018-08-16T17:49:37.999Z,20.20
2018-08-16T17:52:08.219Z,20.20
2018-08-16T17:54:37.607Z,20.20
2018-08-16T17:57:06.658Z,20.20
2018-08-16T17:59:35.726Z,20.20
2018-08-16T18:02:05.043Z,20.20
2018-08-16T18:04:34.155Z,20.20
2018-08-16T18:07:03.580Z,20.20
2018-08-16T18:09:32.637Z,20.30
2018-08-16T18:12:01.701Z,20.20
2018-08-16T18:14:30.707Z,20.20
2018-08-16T18:17:00.242Z,20.20
2018-08-16T18:19:29.330Z,20.20
2018-08-16T18:21:59.080Z,20.20
2018-08-16T18:24:28.320Z,20.20
2018-08-16T18:26:57.294Z,20.20
2018-08-16T18:29:26.675Z,20.20
2018-08-16T18:31:55.697Z,20.20
2018-08-16T18:34:24.820Z,20.20
2018-08-16T18:36:54.109Z,20.20
2018-08-16T18:39:23.202Z,20.20
2018-08-16T18:41:52.194Z,20.20
2018-08-16T18:44:21.275Z,20.20
2018-08-16T18:46:50.291Z,20.20
2018-08-16T18:49:19.222Z,20.20
2018-08-16T18:51:48.318Z,20.20
2018-08-16T18:54:17.399Z,20.20
2018-08-16T18:56:46.388Z,20.20
2018-08-16T18:59:15.362Z,20.20
2018-08-16T19:01:44.331Z,20.20
2018-08-16T19:04:13.312Z,20.20
2018-08-16T19:06:42.424Z,20.20
2018-08-16T19:09:11.556Z,20.20
2018-08-16T19:11:40.627Z,20.20
2018-08-16T19:14:09.609Z,20.20
2018-08-16T19:16:38.723Z,20.20
2018-08-16T19:19:07.896Z,20.20
2018-08-16T19:21:37.072Z,20.20
2018-08-16T19:24:06.102Z,20.10
2018-08-16T19:26:35.249Z,20.20
2018-08-16T19:29:04.245Z,20.20
2018-08-16T19:31:33.297Z,20.20
2018-08-16T19:34:02.294Z,20.20
2018-08-16T19:36:31.320Z,20.20
2018-08-16T19:39:00.324Z,20.10
2018-08-16T19:41:29.370Z,20.20
2018-08-16T19:43:58.290Z,20.10
2018-08-16T19:46:27.396Z,20.20
2018-08-16T19:48:56.433Z,20.10
2018-08-16T19:51:25.727Z,20.10
2018-08-16T19:53:54.839Z,20.10
2018-08-16T19:56:23.944Z,20.20
2018-08-16T19:58:52.989Z,20.20
2018-08-16T20:01:22.258Z,20.20
2018-08-16T20:03:51.192Z,20.20
2018-08-16T20:06:20.340Z,20.20
2018-08-16T20:08:49.434Z,20.10
2018-08-16T20:11:18.585Z,20.10
2018-08-16T20:13:47.699Z,20.20
2018-08-16T20:16:16.714Z,20.20
2018-08-16T20:18:45.707Z,20.20
2018-08-16T20:21:14.744Z,20.20
2018-08-16T20:23:43.788Z,20.10
2018-08-16T20:26:12.816Z,20.20
2018-08-16T20:28:41.781Z,20.10
2018-08-16T20:31:10.808Z,20.10
2018-08-16T20:33:39.840Z,20.10
2018-08-16T20:36:09.218Z,20.10
2018-08-16T20:38:38.170Z,20.10
2018-08-16T20:41:07.179Z,20.10
2018-08-16T20:43:36.136Z,20.10
2018-08-16T20:46:05.339Z,20.10
2018-08-16T20:48:34.387Z,20.10
2018-08-16T20:51:03.557Z,20.10
2018-08-16T20:56:14.955Z,20.10
2018-08-16T20:58:43.995Z,20.00
2018-08-16T21:01:12.951Z,20.00
2018-08-16T21:03:42.071Z,20.00
2018-08-16T21:06:11.187Z,20.00
2018-08-16T21:08:40.147Z,20.00
2018-08-16T21:11:09.161Z,20.00
2018-08-16T21:13:38.280Z,20.00
2018-08-16T21:16:07.449Z,19.90
2018-08-16T21:18:36.636Z,20.00
2018-08-16T21:21:06.042Z,19.90
2018-08-16T21:23:35.080Z,19.90
2018-08-16T21:26:04.242Z,19.90
2018-08-16T21:28:33.217Z,19.90
2018-08-16T21:31:02.395Z,19.90
2018-08-16T21:33:31.387Z,19.90
2018-08-16T21:36:00.453Z,19.80
2018-08-16T21:38:29.436Z,19.90
2018-08-16T21:40:58.371Z,19.80
2018-08-16T21:43:27.401Z,19.80
2018-08-16T21:45:56.388Z,19.80
2018-08-16T21:48:25.355Z,19.80
2018-08-16T21:50:54.447Z,19.80
2018-08-16T21:53:23.483Z,19.70
2018-08-16T21:55:52.467Z,19.70
2018-08-16T21:58:21.474Z,19.70
2018-08-16T22:00:52.755Z,19.70
2018-08-16T22:03:23.823Z,19.60
2018-08-16T22:05:57.021Z,19.60
2018-08-16T22:08:47.188Z,19.60
2018-08-16T22:11:16.306Z,19.60
2018-08-16T22:13:45.303Z,19.60
2018-08-16T22:16:14.462Z,19.60
2018-08-16T22:18:43.439Z,19.50
2018-08-16T22:21:12.377Z,19.50
2018-08-16T22:23:41.383Z,19.50
2018-08-16T22:26:10.590Z,19.50
2018-08-16T22:28:39.626Z,19.50
2018-08-16T22:31:08.580Z,19.40
2018-08-16T22:33:37.683Z,19.40
2018-08-16T22:36:06.907Z,19.40
2018-08-16T22:38:35.863Z,19.40
2018-08-16T22:41:05.099Z,19.40
2018-08-16T22:43:34.039Z,19.30
2018-08-16T22:46:03.048Z,19.30
2018-08-16T22:48:32.145Z,19.30
2018-08-16T22:51:01.140Z,19.30
2018-08-16T22:53:30.166Z,19.20
2018-08-16T22:55:59.114Z,19.20
2018-08-16T22:58:28.135Z,19.20
2018-08-16T23:00:57.134Z,19.20
2018-08-16T23:03:26.158Z,19.20
2018-08-16T23:05:55.118Z,19.20
2018-08-16T23:08:24.201Z,19.10
2018-08-16T23:10:53.254Z,19.10
2018-08-16T23:13:22.192Z,19.10
2018-08-16T23:15:51.239Z,19.10
2018-08-16T23:18:20.276Z,19.10
2018-08-16T23:20:49.295Z,19.10
2018-08-16T23:23:18.367Z,19.10
2018-08-16T23:25:47.381Z,19.00
2018-08-16T23:28:16.351Z,19.10
2018-08-16T23:30:45.387Z,19.00
2018-08-16T23:33:14.475Z,19.00
2018-08-16T23:35:43.486Z,19.00
2018-08-16T23:38:12.466Z,19.00
2018-08-16T23:40:41.415Z,19.00
2018-08-16T23:43:10.469Z,19.00
2018-08-16T23:45:39.525Z,19.00
2018-08-16T23:48:19.422Z,18.90
2018-08-16T23:50:48.406Z,18.90
2018-08-16T23:53:17.458Z,18.90
2018-08-16T23:55:47.862Z,18.90
2018-08-16T23:58:16.917Z,18.90
